Tabb, Virginia
Current Conditions -  °F | °C
As of 12:54 AM on Thursday 27 Nov 2014 (Local Time) from KPHF Reporting Station
Scattered Clouds Scattered Clouds  
Wind Chill: 37°   Ceiling: Unl
Heat Index: 41°   Visibility: 10mi
Dew Point: 35°   Wind: 6mph
Humidity: 79%   Direction: 260°W
Pressure: 30.05"   Gusts: NA
Location:  37.1229°N, 76.4458°W
Report Text: KPHF 270554Z 26005KT 10SM SCT065 05/02 A3005 RMK AO2 SLP177 60000 T00500017 10061 20050 52010
Loading
Personal Weather Stations






























Interactive Weather Map New forecast layout! Learn more

10-Day Weather Forecast

Advertisements
Track Severe Weather on mobile